Latest Coastal Weather Observations for Wynyard

IDT60701

Issued at 6:12 am EDT Tuesday 7 February 2023 (issued every 10 minutes, with the page automatically refreshed every 10 minutes)

About coastal observations | Map of coastal stations | Coastal observations for TAS | Marine services | Other Formats
Station Details ID: 091107 Name: WYNYARD AIRPORT Lat: -41.00 Lon: 145.73 Height: 12.0 m
Data from the previous 72 hours. | See also: Recent months at Wynyard
Date/Time
EDT
Wind Sea
Height
m
Swell Vis
km
Cloud Weather Temp
°C
Press
MSL
hPa
Rain since
9am
mm
Dir  Spd
kts
Gust
kts
Height
m
Period
s
Dir
07/06:00am W 6 9 - - - - 10 Mostly cloudy - 12.3 1016.4 0.0
07/05:30am W 5 9 - - - - 10 Cloudy - 11.7 1016.3 0.0
07/05:00am WSW 4 5 - - - - 10 Cloudy - 11.3 1016.4 0.0
07/04:30am WNW 6 8 - - - - 10 Partly cloudy - 11.8 1016.3 0.0
07/04:00am WNW 8 10 - - - - 10 Partly cloudy - 12.0 1016.4 0.0
07/03:30am WNW 9 11 - - - - 10 Partly cloudy - 12.4 1016.5 0.0
07/03:00am WNW 8 9 - - - - 10 - - 12.4 1016.4 0.0
07/02:30am WNW 7 8 - - - - 10 - - 12.1 1016.4 0.0
07/02:00am WNW 7 8 - - - - 10 - - 12.1 1016.5 0.0
07/01:30am WNW 6 8 - - - - 10 - - 12.7 1016.6 0.0
07/01:00am WNW 6 7 - - - - 10 - - 12.6 1016.7 0.0
07/12:30am WNW 6 8 - - - - 10 Partly cloudy - 12.7 1016.9 0.0
07/12:00am W 6 8 - - - - 10 - - 12.9 1016.9 0.0
 
Date/Time
EDT
Wind Sea
Height
m
Swell Vis
km
Cloud Weather Temp
°C
Press
MSL
hPa
Rain since
9am
mm
Dir  Spd
kts
Gust
kts
Height
m
Period
s
Dir
06/11:30pm WSW 11 15 - - - - 10 - - 13.4 1017.2 0.0
06/11:00pm WNW 7 9 - - - - 10 - - 13.7 1017.3 0.0
06/10:30pm WSW 8 10 - - - - 10 - - 14.0 1017.1 0.0
06/10:00pm W 11 13 - - - - 10 - - 14.8 1016.9 0.0
06/09:30pm WSW 11 15 - - - - 10 - - 15.2 1016.8 0.0
06/09:00pm WSW 12 15 - - - - 10 - - 15.7 1016.4 0.0
06/08:30pm WSW 11 20 - - - - 10 - - 16.9 1016.3 0.0
06/08:00pm SW 15 23 - - - - 10 - - 17.4 1016.1 0.0
06/07:48pm SW 16 26 - - - - 10 - - 17.9 1016.0 0.0
06/07:30pm SW 14 20 - - - - 10 Partly cloudy - 18.7 1015.7 0.0
06/07:04pm SW 17 27 - - - - 10 Partly cloudy - 19.3 1015.6 0.0
06/07:00pm SW 18 27 - - - - 10 Partly cloudy - 19.1 1015.5 0.0
06/06:30pm WSW 16 24 - - - - 10 - - 20.8 1015.0 0.0
06/06:00pm WSW 17 23 - - - - 10 - - 21.4 1015.0 0.0
06/05:30pm WSW 20 27 - - - - 10 - - 21.6 1015.0 0.0
06/05:00pm WSW 18 24 - - - - 10 - - 22.4 1015.1 0.0
06/04:30pm WSW 17 26 - - - - 10 - - 22.4 1015.1 0.0
06/04:13pm WSW 19 29 - - - - 10 - - 22.3 1015.0 0.0
06/04:00pm WSW 20 26 - - - - 10 - - 22.5 1015.1 0.0
06/03:30pm SW 16 24 - - - - 10 - - 22.4 1015.3 0.0
06/03:12pm WSW 16 23 - - - - 10 - - 22.9 1015.4 0.0
06/03:00pm WSW 18 26 - - - - 10 - - 23.0 1015.2 0.0
06/02:30pm WSW 18 28 - - - - 10 Partly cloudy - 22.8 1015.5 0.0
06/02:01pm WSW 19 28 - - - - 10 Partly cloudy - 22.2 1015.7 0.0
06/02:00pm WSW 18 25 - - - - 10 Partly cloudy - 22.4 1015.7 0.0
06/01:30pm WSW 17 27 - - - - 10 Partly cloudy - 22.3 1015.7 0.0
06/01:28pm WSW 16 27 - - - - 10 Partly cloudy - 23.2 1015.6 0.0
06/01:00pm SW 15 19 - - - - 10 Partly cloudy - 21.4 1015.8 0.0
06/12:30pm WSW 16 24 - - - - 10 Partly cloudy - 21.8 1016.1 0.0
06/12:00pm WSW 16 23 - - - - 10 Mostly clear - 21.6 1016.2 0.0
06/11:30am WSW 15 21 - - - - 10 Partly cloudy - 20.2 1016.4 0.0
06/11:00am WSW 16 24 - - - - 10 Partly cloudy - 20.6 1016.3 0.0
06/10:30am WSW 15 21 - - - - 10 Partly cloudy - 19.2 1016.4 0.0
06/10:00am W 15 22 - - - - 10 Partly cloudy - 18.4 1016.1 0.0
06/09:30am WSW 16 22 - - - - 10 Partly cloudy - 17.8 1016.0 0.0
06/09:00am WSW 15 20 - - - - 10 Mostly clear - 16.8 1016.0 0.0
06/08:30am WSW 12 16 - - - - 10 - - 16.3 1016.0 0.0
06/08:00am W 9 12 - - - - 10 - - 15.2 1015.7 0.0
06/07:30am WNW 7 9 - - - - 10 - - 14.0 1015.7 0.0
06/07:00am WNW 7 8 - - - - 10 - - 13.0 1015.5 0.0
06/06:30am WNW 7 9 - - - - 10 - - 12.2 1015.1 0.0
06/06:00am W 8 10 - - - - 10 - - 12.0 1014.7 0.0
06/05:30am W 9 10 - - - - 10 - - 12.4 1014.4 0.0
06/05:00am W 9 13 - - - - 10 - - 13.0 1014.2 0.0
06/04:30am W 7 9 - - - - 10 - - 12.4 1014.1 0.0
06/04:00am WSW 7 11 - - - - 10 - - 12.3 1014.0 0.0
06/03:30am WSW 8 11 - - - - 10 - - 12.6 1013.9 0.0
06/03:00am W 9 13 - - - - 10 - - 12.5 1014.0 0.0
06/02:30am WSW 7 9 - - - - 10 - - 12.1 1014.0 0.0
06/02:00am W 8 11 - - - - 10 - - 12.2 1014.2 0.0
06/01:30am W 9 13 - - - - 10 - - 12.6 1014.4 0.0
06/01:00am WSW 8 11 - - - - 10 - - 11.9 1014.2 0.0
06/12:30am W 7 11 - - - - 10 - - 12.2 1014.4 0.0
06/12:00am W 9 11 - - - - 10 - - 12.7 1014.5 0.0
 
Date/Time
EDT
Wind Sea
Height
m
Swell Vis
km
Cloud Weather Temp
°C
Press
MSL
hPa
Rain since
9am
mm
Dir  Spd
kts
Gust
kts
Height
m
Period
s
Dir
05/11:30pm W 10 11 - - - - 10 - - 12.6 1014.4 0.0
05/11:00pm W 9 11 - - - - 10 - - 12.7 1014.5 0.0
05/10:30pm W 8 10 - - - - 10 - - 13.0 1014.7 0.0
05/10:00pm WSW 10 13 - - - - 10 - - 13.6 1014.7 0.0
05/09:30pm WSW 12 16 - - - - 10 - - 14.3 1014.4 0.0
05/09:00pm WSW 14 19 - - - - 10 - - 15.2 1014.0 0.0
05/08:30pm SW 11 17 - - - - 10 - - 16.0 1013.8 0.0
05/08:00pm SW 11 16 - - - - 10 - - 17.3 1013.5 0.0
05/07:30pm SW 13 19 - - - - 10 - - 18.3 1013.0 0.0
05/07:00pm WSW 15 21 - - - - 10 - - 19.3 1012.9 0.0
05/06:30pm WSW 15 21 - - - - 10 - - 19.8 1012.7 0.0
05/06:00pm WSW 17 22 - - - - 10 - - 20.1 1012.7 0.0
05/05:30pm WSW 17 25 - - - - 10 - - 20.1 1012.8 0.0
05/05:00pm WSW 19 25 - - - - 10 - - 20.3 1012.8 0.0
05/04:30pm WSW 19 27 - - - - 10 - - 20.9 1012.6 0.0
05/04:00pm W 18 27 - - - - 10 - - 22.2 1012.3 0.0
05/03:30pm SW 12 18 - - - - 10 - - 22.7 1012.5 0.0
05/03:00pm SW 10 15 - - - - 10 - - 21.6 1012.8 0.0
05/02:30pm SW 11 17 - - - - 10 - - 20.5 1013.2 0.0
05/02:00pm WSW 14 21 - - - - 10 Partly cloudy - 20.7 1013.4 0.0
05/01:30pm WSW 13 23 - - - - 10 Cloudy - 20.3 1013.3 0.0
05/01:00pm SW 13 20 - - - - 10 Partly cloudy - 19.6 1013.5 0.0
05/12:30pm SSW 14 21 - - - - 10 Partly cloudy - 19.1 1013.6 0.0
05/12:00pm WSW 16 23 - - - - 10 Mostly cloudy - 19.0 1013.7 0.0
05/11:30am SW 14 21 - - - - 10 Cloudy - 17.8 1013.7 0.0
05/11:00am WSW 14 19 - - - - 10 Cloudy - 17.3 1013.6 0.0
05/10:30am WSW 13 17 - - - - 10 Cloudy - 16.7 1013.4 0.0
05/10:00am WSW 10 15 - - - - 10 Cloudy - 16.4 1013.5 0.0
05/09:30am W 11 15 - - - - 10 Cloudy - 16.1 1013.1 0.0
05/09:00am W 10 14 - - - - 10 Cloudy - 15.6 1013.0 0.0
05/08:30am W 11 14 - - - - 10 Cloudy - 14.7 1012.7 0.0
05/08:00am W 11 14 - - - - 10 Cloudy - 14.5 1012.1 0.0
05/07:30am W 9 13 - - - - 10 Cloudy - 14.0 1011.7 0.0
05/07:00am WSW 9 13 - - - - 10 Cloudy - 13.2 1011.1 0.0
05/06:30am W 8 9 - - - - 10 Partly cloudy - 12.5 1010.9 0.0
05/06:00am W 10 11 - - - - 10 Mostly cloudy - 12.7 1010.3 0.0
05/05:30am WNW 7 9 - - - - 10 Cloudy - 13.2 1010.0 0.0
05/05:00am WNW 8 10 - - - - 10 Cloudy - 13.3 1009.4 0.0
05/04:30am WNW 9 12 - - - - 10 Cloudy - 13.3 1008.8 0.0
05/04:00am W 8 12 - - - - 10 Partly cloudy - 12.9 1008.7 0.0
05/03:30am W 13 17 - - - - 10 Partly cloudy - 12.9 1008.1 0.0
05/03:00am W 10 15 - - - - 10 Mostly clear - 12.6 1008.1 0.0
05/02:30am WNW 9 14 - - - - 10 Cloudy - 13.4 1007.8 0.0
05/02:00am WNW 10 15 - - - - 10 Partly cloudy - 13.5 1008.0 0.0
05/01:30am W 10 15 - - - - 10 Partly cloudy - 13.0 1007.8 0.0
05/01:00am WSW 13 18 - - - - 10 Partly cloudy - 13.5 1007.6 0.0
05/12:30am WSW 14 20 - - - - 10 Partly cloudy - 13.4 1007.6 0.0
05/12:00am W 15 20 - - - - 10 - - 13.5 1007.4 0.0
 
Date/Time
EDT
Wind Sea
Height
m
Swell Vis
km
Cloud Weather Temp
°C
Press
MSL
hPa
Rain since
9am
mm
Dir  Spd
kts
Gust
kts
Height
m
Period
s
Dir
04/11:30pm WSW 14 21 - - - - 10 Partly cloudy - 13.4 1007.4 0.0
04/11:00pm WSW 13 17 - - - - 10 Partly cloudy - 13.3 1007.5 0.0
04/10:30pm W 11 16 - - - - 10 Partly cloudy - 13.8 1007.3 0.0
04/10:00pm W 10 14 - - - - 10 Partly cloudy - 13.7 1007.0 0.0
04/09:30pm W 11 14 - - - - 10 Partly cloudy - 13.7 1006.5 0.0
04/09:00pm WSW 14 20 - - - - 10 - - 14.3 1005.9 0.0
04/08:30pm WSW 14 19 - - - - 10 - - 14.5 1005.3 0.0
04/08:01pm SW 16 26 - - - - 10 Partly cloudy - 15.5 1004.7 0.0
04/08:00pm SW 15 23 - - - - 10 Partly cloudy - 15.4 1004.7 0.0
04/07:37pm SW 16 26 - - - - 10 Partly cloudy - 15.9 1004.1 0.0
04/07:30pm WSW 16 22 - - - - 10 Partly cloudy - 15.8 1003.9 0.0
04/07:02pm WSW 16 27 - - - - 10 Partly cloudy - 16.5 1003.3 0.0
04/07:00pm WSW 15 24 - - - - 10 Partly cloudy - 16.6 1003.3 0.0
04/06:30pm SW 17 29 - - - - 10 Partly cloudy - 16.3 1002.7 0.0
04/06:00pm WSW 23 34 - - - - 10 Mostly cloudy - 16.4 1002.3 0.0
04/05:59pm WSW 23 33 - - - - 10 Partly cloudy - 16.4 1002.3 0.0
04/05:30pm WSW 17 24 - - - - 10 Partly cloudy - 17.2 1002.1 0.0
04/05:02pm WSW 15 26 - - - - 10 Cloudy - 15.8 1001.8 0.0
04/05:00pm WSW 15 24 - - - - 10 Cloudy - 15.8 1001.9 0.0
04/04:30pm SW 17 27 - - - - 10 Cloudy - 16.1 1001.5 0.0
04/04:04pm WSW 20 31 - - - - 10 Cloudy - 16.6 1001.2 0.0
04/04:00pm WSW 22 29 - - - - 10 Cloudy - 16.6 1001.2 0.0
04/03:30pm WSW 15 25 - - - - 10 Cloudy - 16.7 1000.7 0.0
04/03:24pm SW 18 27 - - - - 10 Cloudy - 17.1 1000.5 0.0
04/03:16pm SW 19 31 - - - - 10 Cloudy - 17.1 1000.5 0.0
04/03:00pm WSW 17 29 - - - - 10 Cloudy - 17.7 1000.2 0.0
04/02:51pm WSW 16 26 - - - - 10 Cloudy - 17.2 1000.1 0.0
04/02:30pm WSW 19 26 - - - - 10 Partly cloudy - 17.1 999.9 0.0
04/02:00pm WSW 20 28 - - - - 10 Cloudy - 19.1 999.4 0.0
04/01:30pm WSW 19 30 - - - - 10 Partly cloudy - 19.1 998.9 0.0
04/01:00pm WSW 15 25 - - - - 10 Partly cloudy - 19.4 998.8 0.0
04/12:55pm WSW 15 25 - - - - 10 Partly cloudy - 19.9 998.7 0.0
04/12:30pm WSW 15 21 - - - - 10 Partly cloudy - 18.6 998.6 0.0
04/12:11pm WSW 15 25 - - - - 10 Partly cloudy - 18.5 998.5 0.0
04/12:00pm SW 15 24 - - - - 10 Cloudy - 18.3 998.5 0.0
04/11:30am WSW 16 22 - - - - 10 Partly cloudy - 18.5 998.3 0.0
04/11:00am WSW 12 18 - - - - 10 Partly cloudy - 17.5 998.0 0.0
04/10:30am W 11 14 - - - - 10 Partly cloudy - 16.2 997.9 0.0
04/10:00am W 11 15 - - - - 10 Cloudy - 15.8 997.8 0.0
04/09:30am W 10 13 - - - - 10 Partly cloudy - 15.0 997.5 0.0
04/09:00am W 10 14 - - - - 10 Cloudy - 14.4 997.1 0.0
04/08:30am WSW 10 13 - - - - 10 Partly cloudy - 13.7 996.9 0.0
04/08:00am WNW 7 10 - - - - 10 Cloudy - 13.4 996.2 0.0
04/07:30am W 10 13 - - - - 10 Cloudy - 12.9 995.7 0.0
04/07:00am W 7 9 - - - - 10 Cloudy - 12.1 995.5 0.0
04/06:30am W 7 8 - - - - 10 Partly cloudy - 11.5 995.4 0.0

Other formats

Comma delimited format used in spreadsheet applications
http://www.bom.gov.au/fwo/IDT60701/IDT60701.95957.axf

JavaScript Object Notation format (JSON) in row-major order
http://www.bom.gov.au/fwo/IDT60701/IDT60701.95957.json

Data quality

Most of these data are generated automatically and are frequently updated. Quality checks on data are not normally performed. It is possible for incorrect values to appear. Refer to information at About Latest Weather Observations and please check the disclaimer before using these data.